Time;durP1;ratioP1;P1;durP2;ratioP2;P2;SDS_P1;SDS_P2;PMS_P1;PMS_P2;Temp;Humidity;BMP_temperature;BMP_pressure;BME280_temperature;BME280_humidity;BME280_pressure;Samples;Min_cycle;Max_cycle;Signal;HPM_P1;HPM_P2
2023/01/29 00:01:58;;;;;;;10.00;5.85;;;;;;;-1.90;100.00;101579.06;5094549;28;20040;-72
2023/01/29 00:04:24;;;;;;;11.32;6.10;;;;;;;-1.89;100.00;101577.84;5095202;28;20024;-71
2023/01/29 00:07:15;;;;;;;12.02;6.03;;;;;;;-1.83;100.00;101576.34;5092866;28;20418;-72
2023/01/29 00:09:50;;;;;;;13.35;6.97;;;;;;;-1.93;100.00;101571.38;5094669;28;20077;-72
2023/01/29 00:12:15;;;;;;;11.25;6.82;;;;;;;-1.86;100.00;101579.91;5076383;28;20028;-72
2023/01/29 00:14:43;;;;;;;14.85;7.68;;;;;;;-1.92;100.00;101584.22;5094532;28;20023;-71
2023/01/29 00:17:30;;;;;;;11.98;6.07;;;;;;;-1.89;100.00;101575.84;5094609;28;20016;-73
2023/01/29 00:19:58;;;;;;;15.32;7.45;;;;;;;-1.82;100.00;101577.97;5092898;28;20438;-71
2023/01/29 00:22:25;;;;;;;15.55;6.68;;;;;;;-1.76;100.00;101579.28;5095031;28;20027;-73
2023/01/29 00:24:51;;;;;;;11.30;6.80;;;;;;;-1.75;100.00;101578.06;5095842;28;20012;-72
2023/01/29 00:27:17;;;;;;;12.35;7.13;;;;;;;-1.78;100.00;101562.03;5072898;28;20111;-73
2023/01/29 00:30:07;;;;;;;17.60;8.25;;;;;;;-1.75;100.00;101566.84;5095388;28;20030;-72
2023/01/29 00:32:31;;;;;;;14.65;7.20;;;;;;;-1.76;100.00;101568.88;5094853;28;20032;-72
2023/01/29 00:34:57;;;;;;;18.40;8.20;;;;;;;-1.73;100.00;101558.91;5077135;28;20035;-73
2023/01/29 00:37:24;;;;;;;15.98;8.10;;;;;;;-1.70;100.00;101563.72;5095100;28;20101;-73
2023/01/29 00:39:49;;;;;;;19.27;7.60;;;;;;;-1.65;100.00;101557.78;5094439;28;20061;-73
2023/01/29 00:45:19;;;;;;;15.10;7.45;;;;;;;-1.70;100.00;101549.72;5078998;28;20036;-72
2023/01/29 00:47:54;;;;;;;15.70;9.35;;;;;;;-1.81;100.00;101545.97;5094210;28;20509;-72
2023/01/29 00:50:20;;;;;;;15.13;8.30;;;;;;;-1.94;100.00;101536.16;5094022;28;20028;-73
2023/01/29 00:52:48;;;;;;;16.58;8.13;;;;;;;-2.03;100.00;101539.25;5093506;28;20553;-72
2023/01/29 00:55:16;;;;;;;18.00;8.48;;;;;;;-2.09;100.00;101529.53;5094170;28;20028;-72
2023/01/29 00:57:42;;;;;;;16.65;8.98;;;;;;;-2.12;100.00;101525.50;5095164;28;20016;-72
2023/01/29 01:00:11;;;;;;;15.75;7.47;;;;;;;-2.18;100.00;101524.22;5094691;28;20530;-72
2023/01/29 01:05:20;;;;;;;14.63;8.13;;;;;;;-2.31;100.00;101508.81;5093522;28;20558;-72
2023/01/29 01:07:48;;;;;;;12.68;7.32;;;;;;;-2.33;100.00;101515.97;5093037;28;20035;-72
2023/01/29 01:10:35;;;;;;;14.35;8.13;;;;;;;-2.44;100.00;101508.19;5075940;28;20374;-73
2023/01/29 01:13:03;;;;;;;17.00;6.85;;;;;;;-2.40;100.00;101519.47;5093689;28;20062;-72
2023/01/29 01:15:39;;;;;;;14.63;8.55;;;;;;;-2.40;100.00;101508.28;5058992;28;20028;-73
2023/01/29 01:18:09;;;;;;;15.05;8.55;;;;;;;-2.43;100.00;101503.41;5094892;28;20061;-73
2023/01/29 01:20:38;;;;;;;18.95;8.65;;;;;;;-2.50;100.00;101492.13;5076447;28;20528;-73
2023/01/29 01:23:04;;;;;;;17.13;8.57;;;;;;;-2.56;100.00;101491.63;5094560;28;20084;-71
2023/01/29 01:25:31;;;;;;;14.65;8.38;;;;;;;-2.55;100.00;101495.22;5094437;28;20016;-73
2023/01/29 01:27:59;;;;;;;19.35;8.90;;;;;;;-2.53;100.00;101496.44;5094249;28;20385;-72
2023/01/29 01:30:33;;;;;;;16.75;9.18;;;;;;;-2.45;100.00;101509.41;5076359;28;20032;-73
2023/01/29 01:33:02;;;;;;;23.33;9.02;;;;;;;-2.32;100.00;101498.00;5094311;28;20028;-72
2023/01/29 01:35:34;;;;;;;16.90;9.20;;;;;;;-2.20;100.00;101501.38;5094331;28;20051;-72
2023/01/29 01:38:00;;;;;;;;;;;;;;;-2.13;100.00;101509.09;5094127;28;20131;-73
2023/01/29 01:40:26;;;;;;;14.07;8.27;;;;;;;-2.08;100.00;101509.56;5093288;28;19977;-72
2023/01/29 01:42:57;;;;;;;15.65;7.40;;;;;;;-2.01;100.00;101498.50;5075675;28;20043;-73
2023/01/29 01:45:27;;;;;;;14.98;6.63;;;;;;;-1.94;100.00;101508.16;5093821;28;20441;-72
2023/01/29 01:48:00;;;;;;;15.00;7.40;;;;;;;-1.92;100.00;101505.81;5093896;28;20059;-73
2023/01/29 01:50:45;;;;;;;14.93;7.30;;;;;;;-1.84;100.00;101499.09;5094136;28;20039;-72
2023/01/29 01:53:29;;;;;;;12.95;7.00;;;;;;;-1.79;100.00;101493.16;5094160;28;20051;-72
2023/01/29 01:56:01;;;;;;;13.43;6.43;;;;;;;-1.76;100.00;101484.84;5075890;28;20020;-72
2023/01/29 01:58:33;;;;;;;14.63;7.18;;;;;;;-1.75;100.00;101488.41;5076058;28;20079;-72
2023/01/29 02:01:00;;;;;;;10.18;6.55;;;;;;;-1.70;100.00;101490.88;5093776;28;20527;-73
2023/01/29 02:11:58;;;;;;;11.23;5.95;;;;;;;-1.47;100.00;101480.41;5058303;28;20141;-70
2023/01/29 02:14:25;;;;;;;7.85;5.38;;;;;;;-1.48;100.00;101487.19;5073346;28;20032;-73
2023/01/29 02:16:51;;;;;;;8.25;5.00;;;;;;;-1.52;100.00;101485.53;5073450;28;20047;-72
2023/01/29 02:19:38;;;;;;;9.90;5.45;;;;;;;-1.44;100.00;101499.25;5055786;28;20024;-72
2023/01/29 02:22:58;;;;;;;12.35;5.45;;;;;;;-1.39;100.00;101492.50;5055404;28;20532;-73
2023/01/29 02:26:01;;;;;;;6.93;4.68;;;;;;;-1.36;100.00;101500.16;5073507;28;20035;-72
2023/01/29 02:29:21;;;;;;;9.90;4.85;;;;;;;-1.37;100.00;101499.34;5073094;28;20025;-72
2023/01/29 02:32:06;;;;;;;8.32;3.83;;;;;;;-1.38;100.00;101494.09;5054089;28;20068;-72
2023/01/29 02:37:39;;;;;;;9.63;4.90;;;;;;;-1.26;100.00;101493.88;5070511;28;20158;-72
2023/01/29 02:40:51;;;;;;;9.73;5.18;;;;;;;-1.20;100.00;101497.91;5072076;28;20024;-72
2023/01/29 02:43:46;;;;;;;9.27;5.25;;;;;;;-1.14;100.00;101493.59;5072282;28;20021;-72
2023/01/29 02:46:45;;;;;;;9.23;5.88;;;;;;;-1.17;100.00;101502.78;5072018;28;20044;-72
2023/01/29 02:49:49;;;;;;;9.52;5.40;;;;;;;-1.17;100.00;101502.78;5053886;28;20378;-71
2023/01/29 02:52:21;;;;;;;11.80;5.97;;;;;;;-1.14;100.00;101500.00;5055991;28;20047;-72
2023/01/29 02:55:12;;;;;;;10.23;5.72;;;;;;;-1.24;100.00;101491.47;5057974;28;20047;-73
2023/01/29 02:57:42;;;;;;;10.50;5.93;;;;;;;-1.25;100.00;101495.47;5057169;28;20059;-72
2023/01/29 03:00:23;;;;;;;7.60;5.40;;;;;;;-1.26;100.00;101496.66;5041340;28;20397;-73
2023/01/29 03:03:01;;;;;;;10.13;5.47;;;;;;;-1.25;100.00;101495.47;5057987;28;20469;-72
2023/01/29 03:06:10;;;;;;;8.95;5.50;;;;;;;-1.18;100.00;101499.16;5059340;28;20024;-72
2023/01/29 03:08:44;;;;;;;11.63;5.80;;;;;;;-1.17;100.00;101499.97;5076657;28;20032;-73
2023/01/29 03:11:12;;;;;;;10.40;5.63;;;;;;;-1.19;100.00;101491.94;5059255;28;20058;-73
2023/01/29 03:14:00;;;;;;;9.23;5.28;;;;;;;-1.18;100.00;101492.75;5042112;28;20032;-72
2023/01/29 03:16:47;;;;;;;8.07;4.70;;;;;;;-1.18;100.00;101499.16;5076713;28;20078;-72
2023/01/29 03:19:22;;;;;;;9.80;5.47;;;;;;;-1.13;100.00;101495.22;5058574;28;20482;-72
2023/01/29 03:22:03;;;;;;;9.95;5.18;;;;;;;-1.21;100.00;101476.69;5076352;28;20100;-71
2023/01/29 03:33:18;;;;;;;7.20;4.43;;;;;;;-1.25;100.00;101485.06;5061194;28;20411;-73
2023/01/29 03:35:59;;;;;;;6.63;4.93;;;;;;;-1.22;100.00;101489.09;5041864;28;20059;-73
2023/01/29 03:38:33;;;;;;;5.95;4.55;;;;;;;-1.21;100.00;101491.50;5039631;28;20516;-72
2023/01/29 03:41:10;;;;;;;7.20;4.97;;;;;;;-1.22;100.00;101480.69;5056224;28;20478;-72
2023/01/29 03:44:01;;;;;;;7.50;5.63;;;;;;;-1.31;100.00;101483.00;5056348;28;20042;-72
2023/01/29 03:46:52;;;;;;;7.18;5.20;;;;;;;-1.24;100.00;101481.06;5056125;28;20025;-72
2023/01/29 03:49:26;;;;;;;7.10;4.82;;;;;;;-1.40;100.00;101479.66;5056271;28;20025;-73
2023/01/29 03:51:59;;;;;;;8.55;5.53;;;;;;;-1.44;100.00;101482.44;5055889;28;20025;-72
2023/01/29 03:54:34;;;;;;;8.13;5.30;;;;;;;-1.35;100.00;101473.72;5056257;28;20037;-72
2023/01/29 03:57:01;;;;;;;9.27;5.25;;;;;;;-1.26;100.00;101468.63;5054653;28;20056;-72
2023/01/29 03:59:42;;;;;;;7.78;5.30;;;;;;;-1.33;100.00;101462.94;5056051;28;20036;-73
2023/01/29 04:02:31;;;;;;;8.02;6.03;;;;;;;-1.30;100.00;101464.97;5054038;28;20033;-72
2023/01/29 04:05:03;;;;;;;6.85;5.50;;;;;;;-1.33;100.00;101468.53;5054687;28;20025;-71
2023/01/29 04:07:32;;;;;;;7.30;5.60;;;;;;;-1.27;100.00;101459.41;5054629;28;20477;-72
2023/01/29 04:10:09;;;;;;;12.63;6.03;;;;;;;-1.21;100.00;101449.44;5038571;28;20087;-72
2023/01/29 04:12:49;;;;;;;10.20;6.40;;;;;;;-1.18;100.00;101456.28;5054186;28;20482;-72
2023/01/29 04:15:16;;;;;;;7.85;5.82;;;;;;;-1.19;100.00;101452.69;5054169;28;20061;-72
2023/01/29 04:17:48;;;;;;;12.27;6.40;;;;;;;-1.32;100.00;101450.53;5054481;28;20108;-72
2023/01/29 04:20:19;;;;;;;11.73;6.40;;;;;;;-1.35;100.00;101460.50;5054148;28;20486;-71
2023/01/29 04:22:47;;;;;;;8.07;5.63;;;;;;;-1.35;100.00;101452.09;5037577;28;20083;-72
2023/01/29 04:25:25;;;;;;;11.68;7.55;;;;;;;-1.32;100.00;101448.53;5055263;28;20028;-73
2023/01/29 04:28:12;;;;;;;13.30;5.68;;;;;;;-1.27;100.00;101453.00;5054693;28;20025;-73
2023/01/29 04:30:57;;;;;;;21.73;7.05;;;;;;;-1.31;100.00;101438.91;5054725;28;20045;-72
2023/01/29 04:33:32;;;;;;;10.30;6.63;;;;;;;-1.38;100.00;101449.25;5053797;28;20550;-71
2023/01/29 04:36:21;;;;;;;10.10;7.05;;;;;;;-1.43;100.00;101439.19;5053960;28;20348;-72
2023/01/29 04:38:59;;;;;;;11.13;6.53;;;;;;;-1.41;100.00;101434.03;5053558;28;20394;-73
2023/01/29 04:41:31;;;;;;;10.38;7.10;;;;;;;-1.43;100.00;101428.00;5054102;28;20098;-73
2023/01/29 04:44:16;;;;;;;10.88;6.40;;;;;;;-1.56;100.00;101421.03;5055228;28;20028;-72
2023/01/29 04:46:50;;;;;;;8.18;5.72;;;;;;;-1.60;100.00;101420.16;5054903;28;20147;-72
2023/01/29 04:49:39;;;;;;;10.38;5.88;;;;;;;-1.56;100.00;101413.41;5055020;28;20044;-71
2023/01/29 04:52:19;;;;;;;12.13;6.82;;;;;;;-1.60;100.00;101400.56;5054722;28;20064;-72
2023/01/29 04:55:12;;;;;;;13.85;6.28;;;;;;;-1.59;100.00;101404.97;5053795;28;20107;-73
2023/01/29 04:58:05;;;;;;;9.52;7.22;;;;;;;-1.65;100.00;101415.72;5053457;28;20029;-72
2023/01/29 05:00:37;;;;;;;9.23;6.38;;;;;;;-1.55;100.00;101405.81;5055269;28;20083;-73
2023/01/29 05:03:04;;;;;;;11.38;6.80;;;;;;;-1.60;100.00;101406.16;5037275;28;20107;-72
2023/01/29 05:05:33;;;;;;;11.55;6.00;;;;;;;-1.63;100.00;101404.13;5036905;28;20021;-72
2023/01/29 05:08:07;;;;;;;8.63;6.20;;;;;;;-1.66;100.00;101405.72;5053233;28;20482;-71
2023/01/29 05:10:34;;;;;;;12.55;6.55;;;;;;;-1.57;100.00;101406.22;5054626;28;20552;-73
2023/01/29 05:13:01;;;;;;;12.32;7.30;;;;;;;-1.57;100.00;101402.63;5053148;28;20040;-72
2023/01/29 05:16:11;;;;;;;10.88;6.53;;;;;;;-1.48;100.00;101396.69;5035763;28;20029;-74
2023/01/29 05:18:37;;;;;;;10.18;6.45;;;;;;;-1.42;100.00;101398.78;5045523;28;20037;-72
2023/01/29 05:21:08;;;;;;;14.23;7.05;;;;;;;-1.45;100.00;101405.13;5053831;28;20036;-72
2023/01/29 05:23:33;;;;;;;9.10;6.13;;;;;;;-1.47;100.00;101395.50;5035842;28;20474;-72
2023/01/29 05:25:59;;;;;;;10.80;6.45;;;;;;;-1.58;100.00;101386.97;5054138;28;20078;-73
2023/01/29 05:28:26;;;;;;;9.85;6.45;;;;;;;-1.63;100.00;101388.13;5053594;28;20025;-72
2023/01/29 05:30:55;;;;;;;10.50;5.80;;;;;;;-1.60;100.00;101386.53;5052653;28;20033;-72
2023/01/29 05:33:27;;;;;;;11.32;6.05;;;;;;;-1.57;100.00;101388.59;5053033;28;20060;-72
2023/01/29 05:35:55;;;;;;;8.60;5.57;;;;;;;-1.61;100.00;101385.78;5053946;28;20029;-73
2023/01/29 05:38:22;;;;;;;12.13;6.03;;;;;;;-1.56;100.00;101390.22;5052526;28;20060;-72
2023/01/29 05:40:48;;;;;;;8.90;5.32;;;;;;;-1.56;100.00;101385.41;5052621;28;20122;-72
2023/01/29 05:43:18;;;;;;;9.38;5.60;;;;;;;-1.66;100.00;101391.72;5053413;28;20071;-73
2023/01/29 05:45:55;;;;;;;8.88;5.13;;;;;;;-1.62;100.00;101394.56;5053741;28;20067;-72
2023/01/29 05:48:22;;;;;;;8.18;5.90;;;;;;;-1.66;100.00;101397.31;5052503;28;20028;-72
2023/01/29 05:50:49;;;;;;;10.02;5.70;;;;;;;-1.64;100.00;101392.13;5052640;28;20048;-72
2023/01/29 05:53:14;;;;;;;10.85;5.85;;;;;;;-1.62;100.00;101389.75;5054083;28;20033;-73
2023/01/29 05:55:44;;;;;;;8.43;5.68;;;;;;;-1.61;100.00;101380.16;5053647;28;20112;-73
2023/01/29 05:58:09;;;;;;;9.98;5.30;;;;;;;-1.63;100.00;101382.53;5052584;28;20033;-72
2023/01/29 06:00:38;;;;;;;9.30;5.90;;;;;;;-1.67;100.00;101369.69;5053086;28;20047;-72
2023/01/29 06:03:04;;;;;;;7.80;5.22;;;;;;;-1.65;100.00;101381.28;5053534;28;20037;-73
2023/01/29 06:05:29;;;;;;;12.25;6.38;;;;;;;-1.78;100.00;101377.16;5052384;28;20071;-72
2023/01/29 06:07:56;;;;;;;10.80;7.15;;;;;;;-1.84;100.00;101387.06;5060848;28;20024;-73
2023/01/29 06:10:21;;;;;;;9.60;5.30;;;;;;;-1.86;100.00;101383.84;5060683;28;20032;-73
2023/01/29 06:12:48;;;;;;;8.55;5.93;;;;;;;-1.94;100.00;101382.94;5059326;28;20033;-72
2023/01/29 06:15:14;;;;;;;10.63;5.07;;;;;;;-1.81;100.00;101387.13;5062200;28;20043;-74
2023/01/29 06:17:41;;;;;;;9.80;5.20;;;;;;;-1.80;100.00;101383.13;5056504;28;20029;-73
2023/01/29 06:20:09;;;;;;;8.68;5.80;;;;;;;-1.83;100.00;101383.91;5035389;28;20044;-73
2023/01/29 06:22:36;;;;;;;11.70;6.90;;;;;;;-1.82;100.00;101384.72;5061916;28;20044;-72
2023/01/29 06:25:04;;;;;;;9.55;5.72;;;;;;;-1.86;100.00;101379.06;5073707;28;20090;-72
2023/01/29 06:27:32;;;;;;;11.10;5.50;;;;;;;-1.91;100.00;101393.41;5072790;28;20465;-77
2023/01/29 06:29:59;;;;;;;10.73;5.05;;;;;;;-1.92;100.00;101389.00;5073165;28;20046;-77
2023/01/29 06:32:26;;;;;;;8.75;5.30;;;;;;;-1.86;100.00;101392.25;5073176;28;20059;-76
2023/01/29 06:34:53;;;;;;;10.52;5.63;;;;;;;-1.85;100.00;101396.69;5071976;28;20036;-75
2023/01/29 06:37:19;;;;;;;9.85;5.90;;;;;;;-1.79;100.00;101395.94;5068161;28;20048;-75
2023/01/29 06:39:48;;;;;;;9.23;5.45;;;;;;;-1.79;100.00;101403.53;5055947;28;20091;-75
2023/01/29 06:42:15;;;;;;;10.40;5.68;;;;;;;-1.76;100.00;101402.78;5052913;28;20029;-74
2023/01/29 06:44:42;;;;;;;7.50;5.45;;;;;;;-1.82;100.00;101409.91;5051683;28;20029;-73
2023/01/29 06:47:22;;;;;;;6.65;4.78;;;;;;;-1.75;100.00;101410.78;5051420;28;20065;-75
2023/01/29 06:49:49;;;;;;;8.32;4.97;;;;;;;-1.80;100.00;101413.94;5051709;28;20551;-75
2023/01/29 06:52:15;;;;;;;9.20;5.18;;;;;;;-1.75;100.00;101412.78;5051801;28;20075;-77
2023/01/29 06:54:41;;;;;;;6.80;4.43;;;;;;;-1.68;100.00;101412.88;5053066;28;20029;-75
2023/01/29 06:57:06;;;;;;;9.80;5.65;;;;;;;-1.76;100.00;101405.59;5052417;28;20051;-74
2023/01/29 06:59:32;;;;;;;7.90;5.88;;;;;;;-1.77;100.00;101420.78;5060911;28;20493;-74
2023/01/29 07:01:59;;;;;;;9.95;5.65;;;;;;;-1.78;100.00;101428.38;5048814;28;20032;-77
2023/01/29 07:04:26;;;;;;;11.90;5.47;;;;;;;-1.80;100.00;101436.34;5072574;28;20032;-77
2023/01/29 07:06:52;;;;;;;10.20;5.47;;;;;;;-1.68;100.00;101441.72;5072965;28;20074;-75
2023/01/29 07:09:18;;;;;;;9.73;6.00;;;;;;;-1.75;100.00;101446.41;5071693;28;20119;-78
2023/01/29 07:11:52;;;;;;;8.70;5.82;;;;;;;-1.81;100.00;101457.16;5071519;28;20434;-77
2023/01/29 07:14:25;;;;;;;11.85;6.13;;;;;;;-1.71;100.00;101461.28;5072986;28;20060;-77
2023/01/29 07:16:52;;;;;;;9.43;6.10;;;;;;;-1.50;100.00;101458.72;5072967;28;20021;-80
2023/01/29 07:19:18;;;;;;;10.18;5.70;;;;;;;-1.49;100.00;101451.13;5072089;28;20089;-79
2023/01/29 07:22:01;;;;;;;9.93;6.13;;;;;;;-1.41;100.00;101459.25;5072964;28;20111;-79
2023/01/29 07:24:28;;;;;;;9.30;5.32;;;;;;;-1.43;100.00;101456.03;5073388;28;20153;-77
2023/01/29 07:26:53;;;;;;;11.15;5.97;;;;;;;-1.61;100.00;101443.81;5073101;28;20021;-78
2023/01/29 07:29:21;;;;;;;8.90;5.85;;;;;;;-1.52;100.00;101455.50;5071885;28;20044;-79
2023/01/29 07:31:48;;;;;;;9.75;6.95;;;;;;;-1.51;100.00;101457.13;5071899;28;20466;-78
2023/01/29 07:34:14;;;;;;;8.65;5.45;;;;;;;-1.60;100.00;101456.59;5068926;28;20036;-76
2023/01/29 07:36:40;;;;;;;8.77;5.15;;;;;;;-1.45;100.00;101449.16;5072441;28;20063;-77
2023/01/29 07:39:10;;;;;;;9.20;6.00;;;;;;;-1.27;100.00;101453.00;5095194;28;20141;-79
2023/01/29 07:41:37;;;;;;;10.18;5.55;;;;;;;-1.18;100.00;101453.50;5096429;28;20567;-78
2023/01/29 07:44:03;;;;;;;10.13;6.00;;;;;;;-1.10;100.00;101446.75;5092154;28;20488;-79
2023/01/29 07:46:30;;;;;;;11.40;5.80;;;;;;;-1.05;100.00;101438.00;5081178;28;20077;-81
2023/01/29 07:48:58;;;;;;;10.55;5.55;;;;;;;-0.90;100.00;101439.75;5081060;28;20496;-77
2023/01/29 07:51:28;;;;;;;10.70;5.55;;;;;;;-0.78;100.00;101439.47;5058480;28;20107;-75
2023/01/29 07:53:55;;;;;;;6.70;4.93;;;;;;;-0.66;100.00;101448.75;5085953;28;20036;-76
2023/01/29 07:56:22;;;;;;;11.30;5.57;;;;;;;-0.61;100.00;101451.22;5090939;28;20040;-74
2023/01/29 07:58:50;;;;;;;12.90;6.20;;;;;;;-0.51;100.00;101456.09;5096422;28;20052;-78
2023/01/29 08:01:16;;;;;;;8.50;5.75;;;;;;;-0.40;100.00;101445.78;5096150;28;20123;-76
2023/01/29 08:03:42;;;;;;;10.45;6.38;;;;;;;-0.57;100.00;101433.19;5094806;28;20063;-75
2023/01/29 08:06:09;;;;;;;10.88;6.15;;;;;;;-0.49;100.00;101437.69;5095740;28;20032;-75
2023/01/29 08:08:38;;;;;;;11.13;6.15;;;;;;;-0.47;100.00;101429.66;5093795;28;20040;-77
2023/01/29 08:11:04;;;;;;;13.40;6.63;;;;;;;-0.50;100.00;101433.28;5089606;28;20032;-77
2023/01/29 08:13:31;;;;;;;12.15;6.10;;;;;;;-0.66;100.00;101417.91;5079522;28;20035;-78
2023/01/29 08:16:13;;;;;;;10.05;6.13;;;;;;;-0.72;100.00;101435.09;5057477;28;20457;-76
2023/01/29 08:18:42;;;;;;;12.45;7.43;;;;;;;-0.69;100.00;101419.50;5076201;28;20060;-76
2023/01/29 08:21:08;;;;;;;11.50;6.47;;;;;;;-0.61;100.00;101420.34;5075966;28;20036;-75
2023/01/29 08:23:34;;;;;;;13.77;7.20;;;;;;;-0.45;100.00;101427.28;5075700;28;20074;-76
2023/01/29 08:26:09;;;;;;;16.45;7.03;;;;;;;-0.26;100.00;101432.63;5074539;28;20036;-77
2023/01/29 08:28:35;;;;;;;14.27;6.63;;;;;;;-0.32;100.00;101422.97;5073707;28;20045;-75
2023/01/29 08:31:00;;;;;;;13.05;7.28;;;;;;;-0.29;100.00;101430.63;5040671;28;20039;-75
2023/01/29 08:33:28;;;;;;;11.30;6.60;;;;;;;-0.37;100.00;101414.91;5075345;28;20059;-76
2023/01/29 08:35:55;;;;;;;11.65;7.57;;;;;;;-0.16;100.00;101419.06;5057376;28;20416;-76
2023/01/29 08:38:20;;;;;;;11.50;6.60;;;;;;;-0.28;100.00;101398.53;5052736;28;20128;-77
2023/01/29 08:40:48;;;;;;;18.98;7.72;;;;;;;-0.20;100.00;101399.38;5055002;28;20116;-74
2023/01/29 08:43:13;;;;;;;12.35;6.50;;;;;;;-0.39;100.00;101411.69;5053984;28;20101;-77
2023/01/29 08:45:44;;;;;;;9.75;6.57;;;;;;;-0.26;100.00;101404.56;5055069;28;20468;-79
2023/01/29 08:48:09;;;;;;;12.20;6.78;;;;;;;-0.04;100.00;101391.44;5054426;28;20037;-75
2023/01/29 08:50:36;;;;;;;10.70;7.00;;;;;;;-0.10;100.00;101386.59;5055338;28;20095;-78
2023/01/29 08:53:11;;;;;;;10.00;6.53;;;;;;;-0.01;100.00;101387.03;5054773;28;20485;-76
2023/01/29 08:55:45;;;;;;;12.07;6.82;;;;;;;0.15;100.00;101387.53;5055120;28;20103;-78
2023/01/29 08:58:13;;;;;;;12.20;7.45;;;;;;;0.13;100.00;101387.09;5055174;28;20127;-75
2023/01/29 09:00:40;;;;;;;11.13;6.88;;;;;;;0.24;100.00;101384.34;5056504;28;20122;-73
2023/01/29 09:03:06;;;;;;;16.33;8.98;;;;;;;0.26;100.00;101391.19;5056491;28;20060;-76
2023/01/29 09:05:34;;;;;;;13.60;7.70;;;;;;;0.37;100.00;101386.38;5041331;28;20107;-77
2023/01/29 09:08:00;;;;;;;10.93;6.18;;;;;;;0.53;100.00;101386.03;5072944;28;20041;-78
2023/01/29 09:10:28;;;;;;;11.80;7.95;;;;;;;0.86;100.00;101394.13;5076088;28;20186;-80
2023/01/29 09:12:55;;;;;;;13.50;7.45;;;;;;;0.83;100.00;101396.94;5075033;28;20024;-77
2023/01/29 09:15:35;;;;;;;12.57;7.28;;;;;;;0.98;100.00;101395.78;5073567;28;20040;-79
2023/01/29 09:18:04;;;;;;;11.77;6.55;;;;;;;0.86;100.00;101398.97;5074013;28;20028;-77
2023/01/29 09:20:31;;;;;;;12.88;7.65;;;;;;;0.75;100.00;101403.78;5073993;28;20064;-77
2023/01/29 09:23:05;;;;;;;13.25;7.90;;;;;;;0.90;100.00;101403.41;5061580;28;20086;-75
2023/01/29 09:25:31;;;;;;;15.00;8.15;;;;;;;0.97;100.00;101389.34;5067273;28;20131;-75
2023/01/29 09:28:00;;;;;;;11.40;7.50;;;;;;;1.30;100.00;101402.22;5069540;28;20525;-75
2023/01/29 09:30:25;;;;;;;12.55;8.13;;;;;;;1.43;100.00;101380.91;5074570;28;20028;-79
2023/01/29 09:32:52;;;;;;;16.75;7.57;;;;;;;1.69;100.00;101395.75;5079257;28;20078;-78
2023/01/29 09:35:17;;;;;;;19.05;8.20;;;;;;;1.71;98.90;101390.50;5072873;28;20065;-77
2023/01/29 09:37:48;;;;;;;14.57;8.05;;;;;;;1.58;98.96;101372.44;5081263;28;20075;-75
2023/01/29 09:40:21;;;;;;;13.82;7.78;;;;;;;1.75;96.66;101394.91;5066465;28;20035;-74
2023/01/29 09:43:12;;;;;;;16.48;7.95;;;;;;;1.97;96.04;101395.69;5087546;28;20525;-75
2023/01/29 09:45:41;;;;;;;14.05;7.18;;;;;;;2.07;94.73;101396.84;5092669;28;20481;-74
2023/01/29 09:48:10;;;;;;;12.40;7.30;;;;;;;2.09;92.79;101391.63;5068451;28;20044;-74
2023/01/29 09:50:43;;;;;;;20.73;7.90;;;;;;;2.02;93.66;101380.34;5060407;28;20103;-72
2023/01/29 09:53:17;;;;;;;12.90;7.43;;;;;;;2.13;92.99;101378.31;5082686;28;20044;-72
2023/01/29 09:55:47;;;;;;;12.57;7.55;;;;;;;2.28;92.17;101363.75;5059975;28;20105;-74
2023/01/29 09:58:31;;;;;;;13.50;7.85;;;;;;;2.27;92.34;101361.34;5092295;28;20473;-75
2023/01/29 10:01:24;;;;;;;12.93;7.78;;;;;;;2.21;92.68;101346.84;5064492;28;20036;-75
2023/01/29 10:04:08;;;;;;;13.90;7.55;;;;;;;2.11;93.31;101344.06;5086640;28;20039;-75
2023/01/29 10:06:57;;;;;;;11.77;6.72;;;;;;;2.15;94.37;101336.41;5091104;28;20038;-74
2023/01/29 10:09:42;;;;;;;14.45;7.25;;;;;;;2.34;94.28;101339.53;5093731;28;20069;-74
2023/01/29 10:12:14;;;;;;;14.52;8.00;;;;;;;2.46;93.68;101324.16;5075572;28;20032;-75
2023/01/29 10:15:05;;;;;;;12.63;7.28;;;;;;;2.57;95.15;101322.09;5093772;28;20028;-77
2023/01/29 10:17:41;;;;;;;10.25;7.05;;;;;;;2.63;94.57;101316.81;5094132;28;20028;-78
2023/01/29 10:20:28;;;;;;;14.85;7.53;;;;;;;2.53;95.25;101317.69;5093757;28;20101;-76
2023/01/29 10:23:00;;;;;;;15.05;8.15;;;;;;;2.65;96.35;101315.16;5094141;28;20019;-78
2023/01/29 10:25:25;;;;;;;;;;;;;;;2.90;94.93;101314.97;5069092;28;20028;-75
2023/01/29 10:27:56;;;;;;;12.35;7.28;;;;;;;3.13;94.42;101305.94;5090513;28;19962;-79
2023/01/29 10:30:24;;;;;;;13.48;7.55;;;;;;;3.27;93.01;101304.97;5071054;28;20032;-72
2023/01/29 10:32:50;;;;;;;13.73;7.10;;;;;;;3.41;91.94;101300.00;5089014;28;20028;-75
2023/01/29 10:35:28;;;;;;;17.02;7.75;;;;;;;3.25;90.87;101288.44;5071613;28;20077;-75
2023/01/29 10:37:56;;;;;;;11.40;7.38;;;;;;;2.84;92.63;101290.44;5075210;28;20102;-71
2023/01/29 10:40:27;;;;;;;14.18;7.85;;;;;;;2.99;94.68;101284.25;5075299;28;20549;-71
2023/01/29 10:43:25;;;;;;;13.20;7.53;;;;;;;3.16;93.26;101291.75;5093915;28;20024;-76
2023/01/29 10:46:39;;;;;;;13.70;8.23;;;;;;;2.91;93.47;101290.38;5035638;28;20036;-73
2023/01/29 10:49:17;;;;;;;13.23;7.57;;;;;;;3.09;94.91;101291.81;5015827;28;20039;-78
2023/01/29 10:51:57;;;;;;;11.63;7.13;;;;;;;3.19;94.92;101288.09;5075237;28;20047;-77
2023/01/29 10:54:42;;;;;;;15.82;8.75;;;;;;;3.34;94.43;101282.31;5094309;28;20051;-78
2023/01/29 10:57:12;;;;;;;16.00;8.25;;;;;;;3.43;94.80;101263.63;5074983;28;20028;-73
2023/01/29 10:59:59;;;;;;;12.77;6.93;;;;;;;3.68;93.75;101279.50;5091808;28;20036;-71
2023/01/29 11:02:25;;;;;;;14.05;8.80;;;;;;;3.60;92.81;101273.16;5089577;28;20028;-71
2023/01/29 11:04:52;;;;;;;15.18;7.85;;;;;;;3.38;94.10;101266.16;5077754;28;20033;-73
2023/01/29 11:07:21;;;;;;;12.57;6.20;;;;;;;3.43;95.20;101265.66;5072912;28;20203;-75
2023/01/29 11:10:02;;;;;;;11.02;7.22;;;;;;;3.33;94.41;101258.91;5038178;28;20359;-71
2023/01/29 11:12:32;;;;;;;11.20;6.72;;;;;;;3.08;96.18;101259.16;5055619;28;20035;-70
2023/01/29 11:15:33;;;;;;;13.55;6.65;;;;;;;3.02;96.55;101243.09;5058723;28;20502;-70
2023/01/29 11:18:13;;;;;;;11.63;6.68;;;;;;;2.88;97.38;101243.25;4996366;28;20030;-74
2023/01/29 11:20:40;;;;;;;11.65;6.30;;;;;;;2.85;96.95;101252.53;5011825;28;20518;-72
2023/01/29 11:23:25;;;;;;;13.65;7.22;;;;;;;2.93;99.74;101239.97;4979924;28;20634;-73
2023/01/29 11:25:54;;;;;;;14.73;6.70;;;;;;;3.06;100.00;101243.88;5012121;28;20553;-73
2023/01/29 11:28:43;;;;;;;12.13;7.13;;;;;;;2.96;99.63;101233.47;4996045;28;20382;-74
2023/01/29 11:31:28;;;;;;;12.07;7.25;;;;;;;2.79;100.00;101230.41;5012790;28;20109;-74
2023/01/29 11:34:03;;;;;;;12.02;7.72;;;;;;;2.90;100.00;101235.94;5057394;28;20040;-74
2023/01/29 11:36:37;;;;;;;15.02;7.80;;;;;;;3.16;100.00;101226.00;5057211;28;20036;-73
2023/01/29 11:39:23;;;;;;;20.15;7.95;;;;;;;3.25;100.00;101220.66;5053189;28;20117;-73
2023/01/29 11:41:51;;;;;;;11.77;7.15;;;;;;;3.22;100.00;101211.03;5055187;28;20025;-74
2023/01/29 11:44:21;;;;;;;12.55;6.80;;;;;;;3.35;100.00;101197.16;5055063;28;20036;-72
2023/01/29 11:46:48;;;;;;;9.80;6.32;;;;;;;3.26;99.20;101196.84;5055189;28;20094;-72
2023/01/29 11:49:44;;;;;;;12.48;6.25;;;;;;;3.11;100.00;101186.94;5055102;28;20025;-72
2023/01/29 11:52:11;;;;;;;10.75;6.40;;;;;;;3.17;100.00;101176.81;5055121;28;20184;-71
2023/01/29 11:55:05;;;;;;;10.40;6.70;;;;;;;3.15;100.00;101167.94;5054717;28;20442;-72
2023/01/29 11:57:34;;;;;;;10.43;6.68;;;;;;;3.08;100.00;101173.69;5056246;28;20126;-73
2023/01/29 12:00:06;;;;;;;11.10;6.70;;;;;;;3.16;100.00;101178.81;5056214;28;20025;-73
2023/01/29 12:02:36;;;;;;;;;;;;;;;3.05;100.00;101166.84;5054943;28;20025;-74
2023/01/29 12:05:26;;;;;;;10.38;6.75;;;;;;;2.84;100.00;101164.22;5055862;28;20006;-73
2023/01/29 12:07:58;;;;;;;13.02;6.90;;;;;;;2.71;100.00;101149.84;5052199;28;20067;-72
2023/01/29 12:10:42;;;;;;;13.07;5.63;;;;;;;2.66;100.00;101152.31;5055940;28;20021;-74
2023/01/29 12:13:09;;;;;;;12.93;6.68;;;;;;;2.86;100.00;101153.34;5055927;28;20381;-74